Time;durP1;ratioP1;P1;durP2;ratioP2;P2;SDS_P1;SDS_P2;PMS_P1;PMS_P2;Temp;Humidity;BMP_temperature;BMP_pressure;BME280_temperature;BME280_humidity;BME280_pressure;Samples;Min_cycle;Max_cycle;Signal;HPM_P1;HPM_P2
2022/06/03 00:01:49;;;;;;;;;;;;;;;14.63;47.52;98190.63;5096616;28;20362;-57
2022/06/03 00:05:24;;;;;;;;;;;;;;;14.61;47.90;98198.38;5095969;28;20022;-56
2022/06/03 00:08:25;;;;;;;;;;;;;;;14.53;47.61;98195.69;5097563;28;20014;-57
2022/06/03 00:11:20;;;;;;;;;;;;;;;14.61;47.63;98197.59;5101447;28;19931;-57
2022/06/03 00:14:24;;;;;;;;;;;;;;;14.83;46.89;98191.00;5087871;28;19935;-57
2022/06/03 00:17:15;;;;;;;;;;;;;;;14.63;47.07;98187.91;5066884;28;19928;-57
2022/06/03 00:20:08;;;;;;;;;;;;;;;14.58;46.87;98184.56;5094089;28;19931;-57
2022/06/03 00:22:59;;;;;;;;;;;;;;;14.62;47.07;98183.56;5097926;28;19920;-57
2022/06/03 00:26:00;;;;;;;;;;;;;;;14.68;46.93;98181.44;5099610;28;20298;-59
2022/06/03 00:28:52;;;;;;;;;;;;;;;14.59;46.49;98177.94;5092683;28;19927;-57
2022/06/03 00:31:47;;;;;;;;;;;;;;;14.57;46.19;98180.22;5094893;28;20246;-57
2022/06/03 00:34:47;;;;;;;;;;;;;;;14.59;46.14;98189.69;5092097;28;19919;-57
2022/06/03 00:37:38;;;;;;;;;;;;;;;14.64;45.78;98177.75;5101172;28;20406;-57
2022/06/03 00:40:34;;;;;;;;;;;;;;;14.74;45.35;98180.13;5094906;28;19931;-57
2022/06/03 00:43:48;;;;;;;;;;;;;;;14.70;45.19;98176.47;5098505;28;19927;-55
2022/06/03 00:46:44;;;;;;;;;;;;;;;14.68;45.23;98176.78;5101151;28;19920;-57
2022/06/03 00:49:43;;;;;;;;;;;;;;;14.76;45.01;98179.81;5097808;28;19927;-57
2022/06/03 00:52:37;;;;;;;;;;;;;;;14.68;44.62;98178.72;5091594;28;19930;-56
2022/06/03 00:55:37;;;;;;;;;;;;;;;14.77;44.49;98184.13;5097828;28;20443;-57
2022/06/03 00:58:57;;;;;;;;;;;;;;;14.67;44.64;98175.19;5099450;28;19944;-56
2022/06/03 01:02:01;;;;;;;;;;;;;;;14.80;44.33;98167.03;5092628;28;19927;-57
2022/06/03 01:05:14;;;;;;;;;;;;;;;14.63;44.48;98168.75;5095412;28;19923;-55
2022/06/03 01:08:33;;;;;;;;;;;;;;;14.67;44.70;98163.44;5098835;28;19925;-57
2022/06/03 01:11:27;;;;;;;;;;;;;;;14.81;44.15;98160.47;5096606;28;19924;-54
2022/06/03 01:14:19;;;;;;;;;;;;;;;15.06;43.29;98156.69;5093140;28;19930;-57
2022/06/03 01:17:09;;;;;;;;;;;;;;;14.73;44.68;98151.16;5085768;28;19919;-56
2022/06/03 01:20:18;;;;;;;;;;;;;;;14.94;44.20;98153.91;5097369;28;19920;-57
2022/06/03 01:23:28;;;;;;;;;;;;;;;14.96;44.08;98156.31;5097578;28;20574;-57
2022/06/03 01:26:19;;;;;;;;;;;;;;;14.86;44.26;98149.28;5096490;28;19954;-57
2022/06/03 01:29:19;;;;;;;;;;;;;;;14.74;44.60;98147.28;5092935;28;19947;-57
2022/06/03 01:32:26;;;;;;;;;;;;;;;14.61;44.91;98157.38;5095360;28;19920;-57
2022/06/03 01:35:35;;;;;;;;;;;;;;;14.59;45.14;98140.47;5091999;28;20006;-55
2022/06/03 01:38:29;;;;;;;;;;;;;;;14.74;45.00;98144.56;5097417;28;19931;-57
2022/06/03 01:41:30;;;;;;;;;;;;;;;14.70;45.37;98140.09;5095888;28;19995;-57
2022/06/03 01:44:29;;;;;;;;;;;;;;;14.68;45.00;98149.44;5098321;28;19964;-57
2022/06/03 01:47:32;;;;;;;;;;;;;;;14.66;45.42;98143.50;5094235;28;19928;-57
2022/06/03 01:50:45;;;;;;;;;;;;;;;14.62;45.40;98145.28;5093639;28;19920;-57
2022/06/03 01:54:01;;;;;;;;;;;;;;;14.63;45.50;98146.88;5035197;28;19930;-56
2022/06/03 01:57:14;;;;;;;;;;;;;;;14.53;46.14;98141.81;5034431;28;19930;-57
2022/06/03 02:00:08;;;;;;;;;;;;;;;14.57;46.23;98142.75;5090257;28;19920;-57
2022/06/03 02:03:03;;;;;;;;;;;;;;;14.66;45.99;98148.16;5094743;28;19924;-57
2022/06/03 02:06:00;;;;;;;;;;;;;;;14.61;46.12;98153.84;5091273;28;20027;-56
2022/06/03 02:09:02;;;;;;;;;;;;;;;14.47;46.73;98159.53;5094661;28;19920;-57
2022/06/03 02:11:58;;;;;;;;;;;;;;;14.57;46.72;98150.94;5093025;28;19924;-57
2022/06/03 02:15:15;;;;;;;;;;;;;;;14.71;46.33;98156.19;5098193;28;19950;-56
2022/06/03 02:18:18;;;;;;;;;;;;;;;14.64;46.45;98153.94;5099872;28;19924;-57
2022/06/03 02:21:17;;;;;;;;;;;;;;;14.84;46.39;98157.03;5094218;28;20310;-57
2022/06/03 02:24:26;;;;;;;;;;;;;;;14.68;46.52;98157.63;5089060;28;19928;-54
2022/06/03 02:27:38;;;;;;;;;;;;;;;14.60;46.86;98147.56;5078475;28;19927;-57
2022/06/03 02:31:13;;;;;;;;;;;;;;;14.46;47.05;98143.44;5098956;28;20272;-57
2022/06/03 02:34:25;;;;;;;;;;;;;;;14.40;47.56;98151.81;5096769;28;19949;-56
2022/06/03 02:37:18;;;;;;;;;;;;;;;14.37;47.69;98148.94;5068416;28;20157;-57
2022/06/03 02:40:13;;;;;;;;;;;;;;;14.41;47.72;98152.63;5058740;28;20312;-56
2022/06/03 02:43:05;;;;;;;;;;;;;;;14.35;47.78;98145.75;5059265;28;19978;-57
2022/06/03 02:46:42;;;;;;;;;;;;;;;14.31;48.17;98145.59;5056377;28;19920;-58
2022/06/03 02:49:43;;;;;;;;;;;;;;;14.43;47.91;98139.41;5055977;28;20133;-58
2022/06/03 02:52:56;;;;;;;;;;;;;;;14.28;48.58;98142.75;5046632;28;19925;-58
2022/06/03 02:56:13;;;;;;;;;;;;;;;14.35;48.11;98149.28;5059419;28;19929;-58
2022/06/03 02:59:13;;;;;;;;;;;;;;;14.53;47.73;98141.81;5049853;28;19925;-57
2022/06/03 03:02:07;;;;;;;;;;;;;;;14.32;48.51;98147.19;5042031;28;19931;-57
2022/06/03 03:05:19;;;;;;;;;;;;;;;14.34;48.40;98138.69;5058918;28;20660;-57
2022/06/03 03:08:32;;;;;;;;;;;;;;;14.26;48.45;98132.13;5054162;28;20213;-56
2022/06/03 03:11:28;;;;;;;;;;;;;;;14.37;48.57;98127.06;5060222;28;19928;-57
2022/06/03 03:14:27;;;;;;;;;;;;;;;14.35;48.57;98135.63;5050545;28;20299;-57
2022/06/03 03:17:23;;;;;;;;;;;;;;;14.22;49.00;98135.84;5060819;28;19962;-56
2022/06/03 03:20:20;;;;;;;;;;;;;;;14.24;48.60;98142.59;5046640;28;20402;-58
2022/06/03 03:23:27;;;;;;;;;;;;;;;14.28;48.80;98134.56;5057649;28;20408;-56
2022/06/03 03:26:18;;;;;;;;;;;;;;;14.14;48.97;98141.03;5061720;28;20303;-56
2022/06/03 03:29:20;;;;;;;;;;;;;;;14.56;48.40;98141.16;5060095;28;19966;-56
2022/06/03 03:32:16;;;;;;;;;;;;;;;14.36;48.73;98153.63;5059668;28;20486;-56
2022/06/03 03:35:19;;;;;;;;;;;;;;;14.51;48.26;98155.00;5067040;28;20338;-56
2022/06/03 03:38:27;;;;;;;;;;;;;;;14.27;48.97;98152.06;5080130;28;19931;-56
2022/06/03 03:41:41;;;;;;;;;;;;;;;14.21;49.45;98136.97;5081497;28;19924;-55
2022/06/03 03:44:32;;;;;;;;;;;;;;;14.20;49.53;98147.09;5079329;28;19920;-56
2022/06/03 03:47:33;;;;;;;;;;;;;;;14.68;48.77;98156.84;5081202;28;19927;-59
2022/06/03 03:50:27;;;;;;;;;;;;;;;14.35;49.08;98162.16;5091199;28;19931;-58
2022/06/03 03:53:34;;;;;;;;;;;;;;;14.39;49.15;98163.09;5101233;28;19945;-58
2022/06/03 03:56:40;;;;;;;;;;;;;;;14.30;49.46;98160.41;5101699;28;19931;-58
2022/06/03 03:59:44;;;;;;;;;;;;;;;14.27;49.55;98155.59;5099038;28;20394;-57
2022/06/03 04:02:41;;;;;;;;;;;;;;;14.37;49.61;98160.69;5092192;28;19949;-57
2022/06/03 04:05:50;;;;;;;;;;;;;;;14.51;49.20;98149.53;5087704;28;19950;-59
2022/06/03 04:09:00;;;;;;;;;;;;;;;14.32;49.76;98169.06;5096802;28;20239;-56
2022/06/03 04:11:56;;;;;;;;;;;;;;;14.63;49.49;98166.03;5093568;28;19924;-57
2022/06/03 04:15:03;;;;;;;;;;;;;;;14.42;49.72;98162.44;5092581;28;19930;-57
2022/06/03 04:18:17;;;;;;;;;;;;;;;14.44;50.02;98164.84;5093651;28;19920;-58
2022/06/03 04:21:26;;;;;;;;;;;;;;;14.43;49.97;98161.28;5093394;28;19924;-54
2022/06/03 04:24:31;;;;;;;;;;;;;;;14.39;49.92;98149.44;5092626;28;20311;-57
2022/06/03 04:27:31;;;;;;;;;;;;;;;14.51;49.68;98155.00;5098342;28;19924;-57
2022/06/03 04:30:37;;;;;;;;;;;;;;;14.57;49.74;98152.88;5100133;28;19972;-55
2022/06/03 04:33:50;;;;;;;;;;;;;;;14.88;49.24;98163.47;5100625;28;19928;-57
2022/06/03 04:37:50;;;;;;;;;;;;;;;14.76;49.11;98161.47;5054462;28;19929;-57
2022/06/03 04:41:03;;;;;;;;;;;;;;;14.71;49.61;98158.13;5057369;28;19998;-57
2022/06/03 04:44:17;;;;;;;;;;;;;;;15.22;47.99;98161.56;5063621;28;19935;-56
2022/06/03 04:47:22;;;;;;;;;;;;;;;15.03;48.85;98162.88;5068204;28;20019;-58
2022/06/03 04:50:44;;;;;;;;;;;;;;;15.02;48.96;98164.00;5056474;28;20549;-58
2022/06/03 04:53:50;;;;;;;;;;;;;;;15.14;48.59;98155.84;5062547;28;19947;-57
2022/06/03 04:57:19;;;;;;;;;;;;;;;15.39;48.45;98166.88;5060414;28;19969;-58
2022/06/03 05:00:21;;;;;;;;;;;;;;;15.33;48.18;98162.75;5055321;28;19931;-57
2022/06/03 05:03:20;;;;;;;;;;;;;;;15.39;48.13;98158.66;5056961;28;19928;-57
2022/06/03 05:06:31;;;;;;;;;;;;;;;15.58;48.39;98158.97;5056329;28;19931;-58
2022/06/03 05:09:47;;;;;;;;;;;;;;;15.34;48.30;98150.66;5057295;28;19931;-55
2022/06/03 05:12:53;;;;;;;;;;;;;;;15.63;48.12;98156.06;5053258;28;20451;-56
2022/06/03 05:15:57;;;;;;;;;;;;;;;15.57;48.10;98146.41;5060280;28;20241;-57
2022/06/03 05:19:04;;;;;;;;;;;;;;;15.74;48.24;98147.41;5061503;28;20284;-56
2022/06/03 05:22:00;;;;;;;;;;;;;;;15.85;48.15;98148.56;5061339;28;19968;-56
2022/06/03 05:25:04;;;;;;;;;;;;;;;15.99;47.57;98138.09;5056386;28;19921;-56
2022/06/03 05:28:12;;;;;;;;;;;;;;;15.85;47.95;98143.88;5051139;28;20248;-53
2022/06/03 05:31:19;;;;;;;;;;;;;;;15.92;47.73;98129.63;5061751;28;19925;-55
2022/06/03 05:34:38;;;;;;;;;;;;;;;16.07;48.04;98134.44;5053082;28;19969;-57
2022/06/03 05:37:23;;;;;;;;;;;;;;;15.99;48.07;98124.38;5077461;28;19931;-57
2022/06/03 05:40:09;;;;;;;;;;;;;;;15.79;48.39;98126.06;5084331;28;19920;-56
2022/06/03 05:42:46;;;;;;;;;;;;;;;15.90;48.67;98131.91;5064257;28;19933;-56
2022/06/03 05:45:24;;;;;;;;;;;;;;;16.18;48.71;98137.50;5063036;28;19920;-57
2022/06/03 05:48:17;;;;;;;;;;;;;;;16.28;47.57;98130.78;5088243;28;19951;-57
2022/06/03 05:51:10;;;;;;;;;;;;;;;16.50;46.83;98133.03;5081906;28;20409;-59
2022/06/03 05:53:44;;;;;;;;;;;;;;;16.28;47.78;98128.84;5096044;28;20351;-57
2022/06/03 05:56:33;;;;;;;;;;;;;;;16.29;48.24;98130.44;5106670;28;20645;-57
2022/06/03 05:59:04;;;;;;;;;;;;;;;16.37;47.69;98126.00;5089152;28;20010;-57
2022/06/03 06:01:36;;;;;;;;;;;;;;;16.47;47.49;98128.25;5104286;28;19933;-57
2022/06/03 06:04:08;;;;;;;;;;;;;;;16.90;47.11;98135.06;5077480;28;19924;-53
2022/06/03 06:06:37;;;;;;;;;;;;;;;16.84;46.37;98131.78;5099575;28;19919;-56
2022/06/03 06:09:14;;;;;;;;;;;;;;;16.82;46.85;98133.25;5098961;28;19924;-56
2022/06/03 06:11:42;;;;;;;;;;;;;;;17.25;46.33;98138.03;5098628;28;19920;-57
2022/06/03 06:14:17;;;;;;;;;;;;;;;17.01;46.26;98131.47;5099888;28;20020;-57
2022/06/03 06:16:46;;;;;;;;;;;;;;;17.14;46.21;98134.97;5100048;28;19946;-57
2022/06/03 06:19:15;;;;;;;;;;;;;;;17.37;45.71;98128.97;5095583;28;19959;-57
2022/06/03 06:21:47;;;;;;;;;;;;;;;17.40;45.20;98126.28;5097159;28;19982;-58
2022/06/03 06:24:17;;;;;;;;;;;;;;;17.47;46.17;98123.75;5096668;28;19924;-57
2022/06/03 06:27:13;;;;;;;;;;;;;;;17.74;44.79;98129.59;5095903;28;20360;-56
2022/06/03 06:30:01;;;;;;;;;;;;;;;17.77;44.84;98129.66;5092794;28;19927;-57
2022/06/03 06:32:41;;;;;;;;;;;;;;;17.87;44.70;98127.53;5094850;28;19939;-56
2022/06/03 06:35:30;;;;;;;;;;;;;;;18.03;44.20;98114.59;5092111;28;19926;-58
2022/06/03 06:38:01;;;;;;;;;;;;;;;17.80;45.16;98117.97;5079170;28;20316;-56
2022/06/03 06:40:37;;;;;;;;;;;;;;;18.01;45.06;98109.47;5092562;28;19962;-57
2022/06/03 06:43:09;;;;;;;;;;;;;;;18.11;44.64;98116.38;5094508;28;20233;-53
2022/06/03 06:45:40;;;;;;;;;;;;;;;18.20;44.78;98118.94;5096076;28;19931;-57
2022/06/03 06:48:10;;;;;;;;;;;;;;;18.42;44.50;98120.22;5094672;28;19920;-57
2022/06/03 06:50:41;;;;;;;;;;;;;;;18.77;43.54;98115.56;5096579;28;19999;-57
2022/06/03 06:53:10;;;;;;;;;;;;;;;18.72;43.88;98118.59;5097600;28;19963;-57
2022/06/03 06:55:43;;;;;;;;;;;;;;;18.71;44.16;98111.50;5103338;28;19938;-58
2022/06/03 06:58:21;;;;;;;;;;;;;;;18.86;44.15;98115.38;5098279;28;19920;-57
2022/06/03 07:00:50;;;;;;;;;;;;;;;18.98;44.57;98125.44;5098445;28;20374;-57
2022/06/03 07:03:20;;;;;;;;;;;;;;;19.07;43.55;98117.78;5094986;28;19923;-57
2022/06/03 07:05:51;;;;;;;;;;;;;;;18.97;44.37;98121.91;5098019;28;19946;-58
2022/06/03 07:08:20;;;;;;;;;;;;;;;19.05;44.26;98114.56;5100114;28;19943;-57
2022/06/03 07:10:51;;;;;;;;;;;;;;;19.19;44.18;98112.09;5099765;28;19997;-57
2022/06/03 07:13:20;;;;;;;;;;;;;;;19.32;44.74;98110.00;5096853;28;19927;-57
2022/06/03 07:15:54;;;;;;;;;;;;;;;19.38;43.83;98117.59;5099960;28;20386;-57
2022/06/03 07:21:13;;;;;;;;;;;;;;;19.57;43.97;98105.75;5103609;28;19919;-58
2022/06/03 07:23:45;;;;;;;;;;;;;;;19.65;44.44;98109.44;5084202;28;20259;-57
2022/06/03 07:26:18;;;;;;;;;;;;;;;19.73;44.27;98094.66;5077212;28;19982;-57
2022/06/03 07:28:47;;;;;;;;;;;;;;;20.09;43.13;98089.75;5081091;28;20386;-57
2022/06/03 07:31:17;;;;;;;;;;;;;;;20.10;43.18;98091.31;5084733;28;20295;-58
2022/06/03 07:34:03;;;;;;;;;;;;;;;20.16;43.96;98098.13;5086325;28;20379;-58
2022/06/03 07:36:51;;;;;;;;;;;;;;;20.44;43.28;98083.16;5071497;28;19986;-54
2022/06/03 07:39:49;;;;;;;;;;;;;;;20.71;42.99;98086.72;5075887;28;20419;-56
2022/06/03 07:42:39;;;;;;;;;;;;;;;20.81;42.55;98081.34;5076863;28;20015;-55
2022/06/03 07:45:30;;;;;;;;;;;;;;;20.86;43.45;98067.19;5074272;28;19924;-56
2022/06/03 07:48:24;;;;;;;;;;;;;;;20.93;43.21;98061.78;5073993;28;19939;-55
2022/06/03 07:51:17;;;;;;;;;;;;;;;21.15;43.09;98062.03;5075832;28;20163;-56
2022/06/03 07:54:07;;;;;;;;;;;;;;;21.19;42.29;98062.84;5078257;28;20282;-55
2022/06/03 08:00:16;;;;;;;;;;;;;;;21.60;42.51;98051.84;5073843;28;20501;-56
2022/06/03 08:03:06;;;;;;;;;;;;;;;21.67;42.82;98049.94;5073138;28;20020;-57
2022/06/03 08:05:56;;;;;;;;;;;;;;;21.82;41.77;98045.34;5073815;28;19977;-55
2022/06/03 08:11:53;;;;;;;;;;;;;;;22.04;41.86;98053.81;5077186;28;19935;-55
2022/06/03 08:14:42;;;;;;;;;;;;;;;22.14;41.52;98047.59;5074984;28;20009;-55
2022/06/03 08:17:32;;;;;;;;;;;;;;;22.27;41.39;98040.56;5075706;28;19930;-57
2022/06/03 08:20:21;;;;;;;;;;;;;;;22.45;41.65;98040.66;5076210;28;20413;-56
2022/06/03 08:23:34;;;;;;;;;;;;;;;22.56;41.06;98032.44;5069920;28;19931;-55
2022/06/03 08:26:24;;;;;;;;;;;;;;;22.64;40.93;98034.06;5070619;28;19927;-55
2022/06/03 08:29:14;;;;;;;;;;;;;;;22.81;41.01;98027.00;5076509;28;20253;-55
2022/06/03 08:35:16;;;;;;;;;;;;;;;22.88;40.80;98025.09;5077001;28;20488;-56
2022/06/03 08:38:05;;;;;;;;;;;;;;;22.97;41.37;98017.22;5094184;28;19976;-55
2022/06/03 08:40:57;;;;;;;;;;;;;;;23.01;39.68;98020.00;5091928;28;19947;-55
2022/06/03 08:43:56;;;;;;;;;;;;;;;23.11;39.90;98010.91;5094189;28;19919;-57
2022/06/03 08:46:47;;;;;;;;;;;;;;;23.12;39.49;98009.72;5097515;28;20248;-57
2022/06/03 08:49:44;;;;;;;;;;;;;;;23.12;40.10;98006.19;5094678;28;20427;-56
2022/06/03 08:52:39;;;;;;;;;;;;;;;23.18;40.20;98007.38;5095776;27;20317;-56
2022/06/03 08:55:39;;;;;;;;;;;;;;;23.30;40.22;98009.75;5097472;28;19920;-56
2022/06/03 08:58:30;;;;;;;;;;;;;;;23.41;40.38;98004.25;5090101;28;19924;-56
2022/06/03 09:01:20;;;;;;;;;;;;;;;23.54;39.55;98008.19;5085451;28;20020;-57
2022/06/03 09:04:11;;;;;;;;;;;;;;;23.64;39.41;97998.34;5092284;28;19983;-56
2022/06/03 09:07:01;;;;;;;;;;;;;;;23.65;39.15;98008.22;5089892;28;20302;-56
2022/06/03 09:09:52;;;;;;;;;;;;;;;23.67;39.27;98001.13;5092767;28;20572;-57
2022/06/03 09:12:44;;;;;;;;;;;;;;;23.70;38.88;97997.56;5095538;28;19920;-57
2022/06/03 09:15:34;;;;;;;;;;;;;;;23.74;38.77;98000.31;5083981;28;19924;-56
2022/06/03 09:18:24;;;;;;;;;;;;;;;23.86;39.45;98007.44;5093693;28;19935;-53
2022/06/03 09:21:14;;;;;;;;;;;;;;;23.86;39.49;98008.22;5093750;28;19951;-56
2022/06/03 09:24:06;;;;;;;;;;;;;;;23.92;39.87;98003.91;5084439;28;20208;-56
2022/06/03 09:26:57;;;;;;;;;;;;;;;24.11;39.23;98001.88;5084679;28;19920;-56
2022/06/03 09:29:46;;;;;;;;;;;;;;;24.12;38.63;97997.91;5090479;28;20274;-55
2022/06/03 09:32:45;;;;;;;;;;;;;;;24.17;38.50;97989.97;5094114;28;19920;-55
2022/06/03 09:35:34;;;;;;;;;;;;;;;24.27;39.62;97997.47;5088692;28;20376;-57
2022/06/03 09:38:24;;;;;;;;;;;;;;;24.29;38.83;97992.34;5095321;28;20408;-53
2022/06/03 09:41:14;;;;;;;;;;;;;;;24.33;38.69;97983.19;5090265;28;20088;-55
2022/06/03 09:44:04;;;;;;;;;;;;;;;24.42;39.31;97984.38;5086540;28;19932;-55
2022/06/03 09:47:01;;;;;;;;;;;;;;;24.49;38.48;97995.47;5092738;28;19931;-57
2022/06/03 09:49:50;;;;;;;;;;;;;;;24.60;39.27;97984.31;5095488;28;19970;-53
2022/06/03 09:52:41;;;;;;;;;;;;;;;24.81;39.69;97978.66;5099553;28;19934;-55
2022/06/03 09:55:31;;;;;;;;;;;;;;;24.78;38.23;97973.16;5078759;28;19924;-55
2022/06/03 09:58:21;;;;;;;;;;;;;;;24.78;37.90;97973.94;5100780;28;19939;-57
2022/06/03 10:01:15;;;;;;;;;;;;;;;24.87;37.79;97964.34;5096660;28;20383;-55
2022/06/03 10:04:06;;;;;;;;;;;;;;;24.91;38.68;97963.13;5096842;28;19923;-52
2022/06/03 10:06:59;;;;;;;;;;;;;;;24.99;38.54;97961.91;5093901;28;19928;-55
2022/06/03 10:13:00;;;;;;;;;;;;;;;25.14;38.60;97953.50;5095083;28;19928;-56
2022/06/03 10:15:58;;;;;;;;;;;;;;;25.05;37.23;97954.72;5093671;28;20276;-56
2022/06/03 10:18:49;;;;;;;;;;;;;;;25.25;38.26;97948.69;5078003;28;20012;-54
2022/06/03 10:21:37;;;;;;;;;;;;;;;25.19;37.14;97939.16;5090520;28;20006;-56
2022/06/03 10:24:30;;;;;;;;;;;;;;;25.19;37.82;97942.75;5094867;28;19931;-55
2022/06/03 10:27:20;;;;;;;;;;;;;;;25.24;36.98;97933.19;5097060;28;19931;-57
2022/06/03 10:30:13;;;;;;;;;;;;;;;25.25;37.31;97938.34;5098520;28;19920;-56
2022/06/03 10:33:03;;;;;;;;;;;;;;;25.20;38.69;97938.00;5099567;28;20358;-55
2022/06/03 10:35:56;;;;;;;;;;;;;;;25.34;38.20;97932.31;5102614;28;19988;-56
2022/06/03 10:38:48;;;;;;;;;;;;;;;25.50;36.95;97923.44;5098647;28;19920;-56
2022/06/03 10:41:40;;;;;;;;;;;;;;;25.46;37.84;97922.69;5102065;28;19920;-56
2022/06/03 10:44:29;;;;;;;;;;;;;;;25.47;37.31;97913.94;5102004;28;20413;-57
2022/06/03 10:47:18;;;;;;;;;;;;;;;25.52;36.71;97899.59;5100948;28;19924;-56
2022/06/03 10:50:33;;;;;;;;;;;;;;;25.57;36.90;97915.06;5097814;28;19926;-53
2022/06/03 11:02:50;;;;;;;;;;;;;;;25.70;36.63;97874.38;5097289;28;19970;-57
2022/06/03 11:05:39;;;;;;;;;;;;;;;25.90;37.58;97873.81;5094660;28;19954;-55
2022/06/03 11:08:29;;;;;;;;;;;;;;;26.21;36.72;97925.56;5099846;28;20302;-57
2022/06/03 11:11:31;;;;;;;;;;;;;;;25.92;36.12;97865.84;5097357;28;20458;-56
2022/06/03 11:14:24;;;;;;;;;;;;;;;25.77;36.49;97859.63;5096327;28;19923;-56
2022/06/03 11:17:16;;;;;;;;;;;;;;;25.67;37.12;97863.28;5101602;28;20321;-56
2022/06/03 11:20:19;;;;;;;;;;;;;;;25.78;37.44;97859.25;5090247;28;20018;-56
2022/06/03 11:23:08;;;;;;;;;;;;;;;25.80;36.78;97853.25;5087443;28;19928;-56
2022/06/03 11:26:01;;;;;;;;;;;;;;;25.82;37.08;97854.41;5097121;28;19919;-55
2022/06/03 11:28:54;;;;;;;;;;;;;;;25.83;36.76;97863.53;5090893;28;19935;-56
2022/06/03 11:32:09;;;;;;;;;;;;;;;26.00;36.98;97862.56;5093586;28;19963;-54
2022/06/03 11:34:58;;;;;;;;;;;;;;;26.03;36.23;97855.38;5094270;28;19920;-57
2022/06/03 11:37:48;;;;;;;;;;;;;;;26.07;36.53;97853.34;5091832;28;19926;-56
2022/06/03 11:40:38;;;;;;;;;;;;;;;26.20;35.99;97856.34;5092605;28;20410;-56
2022/06/03 11:43:29;;;;;;;;;;;;;;;26.20;36.54;97853.56;5088121;28;19924;-56
2022/06/03 11:46:37;;;;;;;;;;;;;;;26.33;35.54;97860.19;5088454;28;19982;-54
2022/06/03 11:49:26;;;;;;;;;;;;;;;26.29;35.11;97862.22;5094483;28;19931;-57
2022/06/03 11:52:14;;;;;;;;;;;;;;;26.36;34.65;97865.69;5094137;28;19919;-56
2022/06/03 11:55:03;;;;;;;;;;;;;;;26.21;34.97;97855.97;5088929;28;20351;-56
2022/06/03 11:57:56;;;;;;;;;;;;;;;26.23;35.65;97853.53;5089417;28;19927;-54
2022/06/03 12:00:47;;;;;;;;;;;;;;;26.25;36.03;97856.69;5083577;28;19924;-56
2022/06/03 12:03:38;;;;;;;;;;;;;;;26.17;35.42;97855.22;5090839;28;19927;-55
2022/06/03 12:06:29;;;;;;;;;;;;;;;26.03;36.35;97852.59;5097716;28;20325;-56
2022/06/03 12:09:22;;;;;;;;;;;;;;;25.94;37.26;97858.66;5102692;28;20340;-57
2022/06/03 12:15:38;;;;;;;;;;;;;;;26.38;35.01;97851.38;5097350;28;20547;-56
2022/06/03 12:18:57;;;;;;;;;;;;;;;26.42;34.89;97857.72;5076723;28;20369;-57
2022/06/03 12:21:58;;;;;;;;;;;;;;;26.44;35.97;97862.88;5091529;28;19964;-55
2022/06/03 12:24:48;;;;;;;;;;;;;;;26.54;35.45;97867.50;5096221;28;19927;-56
2022/06/03 12:27:37;;;;;;;;;;;;;;;26.65;36.28;97859.78;5103472;27;20155;-55
2022/06/03 12:30:51;;;;;;;;;;;;;;;26.69;35.26;97845.81;5096580;28;19924;-57
2022/06/03 12:33:44;;;;;;;;;;;;;;;26.89;35.08;97844.69;5100871;28;19924;-56
2022/06/03 12:36:36;;;;;;;;;;;;;;;26.89;35.62;97849.47;5053992;28;19924;-55
2022/06/03 12:39:28;;;;;;;;;;;;;;;26.95;34.90;97841.41;5058526;28;20324;-57
2022/06/03 12:42:32;;;;;;;;;;;;;;;26.90;34.86;97839.91;5060457;28;19928;-56
2022/06/03 12:45:29;;;;;;;;;;;;;;;26.81;34.71;97836.84;5057382;28;20355;-56
2022/06/03 12:51:56;;;;;;;;;;;;;;;26.69;35.09;97854.16;5061585;28;19924;-56
2022/06/03 12:54:47;;;;;;;;;;;;;;;26.53;36.18;97849.22;5057868;28;20193;-57
2022/06/03 12:57:38;;;;;;;;;;;;;;;26.46;35.68;97838.94;5059104;28;20026;-56
2022/06/03 13:00:52;;;;;;;;;;;;;;;26.83;35.96;97823.28;5061660;28;19921;-54
2022/06/03 13:03:42;;;;;;;;;;;;;;;26.80;34.97;97804.63;5057082;28;19979;-56
2022/06/03 13:06:32;;;;;;;;;;;;;;;26.83;34.82;97803.78;5051113;28;19924;-57
2022/06/03 13:09:35;;;;;;;;;;;;;;;26.88;34.55;97806.88;5057357;28;20028;-55
2022/06/03 13:12:28;;;;;;;;;;;;;;;26.80;35.29;97808.19;5057868;28;20384;-56
2022/06/03 13:15:50;;;;;;;;;;;;;;;26.81;35.26;97807.00;5057360;28;20365;-56
2022/06/03 13:18:40;;;;;;;;;;;;;;;26.82;34.71;97816.13;4976806;28;19954;-55
2022/06/03 13:21:29;;;;;;;;;;;;;;;26.75;34.59;97805.09;4971972;28;19922;-56
2022/06/03 13:24:22;;;;;;;;;;;;;;;26.86;35.03;97800.16;4959027;28;19947;-56
2022/06/03 13:27:12;;;;;;;;;;;;;;;26.83;34.90;97792.63;4963599;28;20210;-56
2022/06/03 13:30:11;;;;;;;;;;;;;;;26.87;34.64;97785.00;4967398;28;20475;-54
2022/06/03 13:33:24;;;;;;;;;;;;;;;26.96;35.21;97793.63;4969210;28;20124;-56
2022/06/03 13:36:38;;;;;;;;;;;;;;;27.04;35.02;97788.69;4977614;28;20170;-55
2022/06/03 13:39:44;;;;;;;;;;;;;;;27.11;34.55;97792.19;4993090;28;19931;-56
2022/06/03 13:42:58;;;;;;;;;;;;;;;27.22;35.45;97794.00;4995864;28;20380;-55
2022/06/03 13:45:51;;;;;;;;;;;;;;;27.20;34.41;97793.63;4991766;28;19921;-57
2022/06/03 13:48:51;;;;;;;;;;;;;;;27.24;34.61;97792.38;5004450;28;19928;-57
2022/06/03 13:51:49;;;;;;;;;;;;;;;27.19;33.92;97786.50;5068906;28;19920;-56
2022/06/03 13:54:42;;;;;;;;;;;;;;;27.25;34.66;97773.63;5078110;28;19920;-56
2022/06/03 13:57:32;;;;;;;;;;;;;;;27.32;34.59;97765.13;5078118;28;20226;-56
2022/06/03 14:00:23;;;;;;;;;;;;;;;27.35;34.62;97767.06;5076222;28;19928;-56
2022/06/03 14:03:13;;;;;;;;;;;;;;;27.34;34.14;97754.34;5077570;28;20303;-55
2022/06/03 14:06:04;;;;;;;;;;;;;;;27.29;34.50;97758.41;5096695;28;19920;-56
2022/06/03 14:09:19;;;;;;;;;;;;;;;27.50;34.19;97754.44;5096448;28;20257;-56
2022/06/03 14:12:13;;;;;;;;;;;;;;;27.33;33.71;97741.63;5098833;28;20423;-55
2022/06/03 14:15:04;;;;;;;;;;;;;;;27.23;34.03;97729.44;5099327;28;19965;-56
2022/06/03 14:24:20;;;;;;;;;;;;;;;27.20;34.44;97729.50;5092467;28;19924;-56
2022/06/03 14:27:11;;;;;;;;;;;;;;;27.15;34.25;97736.34;5079418;28;19964;-53
2022/06/03 14:30:03;;;;;;;;;;;;;;;27.21;34.49;97729.06;5083605;28;19919;-56
2022/06/03 14:32:54;;;;;;;;;;;;;;;27.19;34.00;97719.56;5089309;28;19955;-56
2022/06/03 14:35:44;;;;;;;;;;;;;;;27.22;34.50;97721.47;5079143;28;20109;-54
2022/06/03 14:38:34;;;;;;;;;;;;;;;27.32;34.97;97717.69;5053940;28;20022;-55
2022/06/03 14:41:27;;;;;;;;;;;;;;;27.24;33.80;97719.06;5056918;28;20261;-53
2022/06/03 14:44:16;;;;;;;;;;;;;;;27.13;34.39;97720.06;5052170;28;19927;-57
2022/06/03 14:47:06;;;;;;;;;;;;;;;27.34;33.64;97723.66;5053296;28;19920;-54
2022/06/03 14:49:55;;;;;;;;;;;;;;;27.21;34.17;97737.44;5042534;28;19920;-56
2022/06/03 14:52:49;;;;;;;;;;;;;;;27.06;34.35;97725.72;5054740;28;20180;-55
2022/06/03 14:55:41;;;;;;;;;;;;;;;27.03;34.05;97737.72;5057004;28;19935;-56
2022/06/03 14:58:30;;;;;;;;;;;;;;;26.95;34.60;97730.69;5055984;28;19932;-57
2022/06/03 15:01:29;;;;;;;;;;;;;;;26.90;34.56;97739.56;5058587;28;19946;-54
2022/06/03 15:04:20;;;;;;;;;;;;;;;26.89;34.35;97743.53;5054533;28;20288;-57
2022/06/03 15:07:10;;;;;;;;;;;;;;;26.83;34.97;97739.66;5055210;28;19924;-55
2022/06/03 15:10:00;;;;;;;;;;;;;;;26.81;34.52;97736.53;5052146;28;20015;-55
2022/06/03 15:12:54;;;;;;;;;;;;;;;26.87;34.66;97730.03;5058183;28;19920;-56
2022/06/03 15:15:44;;;;;;;;;;;;;;;26.84;34.95;97727.28;5062294;28;19928;-56
2022/06/03 15:18:58;;;;;;;;;;;;;;;26.86;34.67;97722.09;5060758;28;20204;-54
2022/06/03 15:21:46;;;;;;;;;;;;;;;26.89;34.62;97721.25;5054685;28;19928;-56
2022/06/03 15:24:34;;;;;;;;;;;;;;;26.88;34.66;97714.88;5041968;28;20448;-56
2022/06/03 15:27:25;;;;;;;;;;;;;;;26.98;34.50;97710.34;5070408;28;19925;-53
2022/06/03 15:30:18;;;;;;;;;;;;;;;27.02;34.57;97711.06;5054442;28;19950;-55
2022/06/03 15:33:11;;;;;;;;;;;;;;;27.01;34.80;97706.72;5054287;28;19924;-54
2022/06/03 15:36:00;;;;;;;;;;;;;;;27.03;34.62;97703.47;5082924;28;19923;-56
2022/06/03 15:38:51;;;;;;;;;;;;;;;26.99;34.54;97697.97;5094713;28;19927;-55
2022/06/03 15:41:45;;;;;;;;;;;;;;;26.88;34.36;97692.56;5096245;28;19928;-55
2022/06/03 15:45:03;;;;;;;;;;;;;;;26.84;35.42;97688.28;5094272;28;19923;-57
2022/06/03 15:51:06;;;;;;;;;;;;;;;26.56;35.91;97681.97;5086457;28;20280;-55
2022/06/03 15:53:55;;;;;;;;;;;;;;;26.45;35.81;97666.66;5069141;28;20022;-55